Time;durP1;ratioP1;P1;durP2;ratioP2;P2;SDS_P1;SDS_P2;PMS_P1;PMS_P2;Temp;Humidity;BMP_temperature;BMP_pressure;BME280_temperature;BME280_humidity;BME280_pressure;Samples;Min_cycle;Max_cycle;Signal;HPM_P1;HPM_P2
2022/08/03 00:02:23;;;;;;;4.80;1.58;;;22.00;87.40;;;;;;5069224;28;20048;-75
2022/08/03 00:04:48;;;;;;;3.90;1.25;;;21.90;87.50;;;;;;5088332;28;20029;-75
2022/08/03 00:07:14;;;;;;;7.95;1.90;;;21.90;87.80;;;;;;5055640;28;20087;-75
2022/08/03 00:09:40;;;;;;;6.07;1.63;;;21.90;87.90;;;;;;5055279;28;20021;-76
2022/08/03 00:12:06;;;;;;;4.40;1.30;;;21.90;88.10;;;;;;5055480;28;20016;-76
2022/08/03 00:14:31;;;;;;;8.13;1.45;;;21.80;88.20;;;;;;5073641;28;20500;-76
2022/08/03 00:16:57;;;;;;;7.22;1.45;;;21.80;88.20;;;;;;5055717;28;20021;-75
2022/08/03 00:19:23;;;;;;;9.95;1.92;;;21.80;88.40;;;;;;5073744;28;20040;-75
2022/08/03 00:21:48;;;;;;;9.70;1.88;;;21.80;88.60;;;;;;5055714;28;20029;-75
2022/08/03 00:24:14;;;;;;;6.78;1.38;;;21.70;89.30;;;;;;5073450;28;20037;-75
2022/08/03 00:26:39;;;;;;;7.70;1.45;;;21.60;88.80;;;;;;5072200;28;20036;-76
2022/08/03 00:29:05;;;;;;;6.82;1.40;;;21.60;88.90;;;;;;5055135;28;20116;-75
2022/08/03 00:31:31;;;;;;;7.68;1.42;;;21.60;89.10;;;;;;5075664;28;20027;-75
2022/08/03 00:33:56;;;;;;;9.25;1.58;;;21.50;89.10;;;;;;5075740;28;20432;-75
2022/08/03 00:36:22;;;;;;;6.40;1.67;;;21.50;89.20;;;;;;5042305;28;20040;-76
2022/08/03 00:38:48;;;;;;;4.82;1.30;;;21.40;89.30;;;;;;5075335;28;20423;-76
2022/08/03 00:41:13;;;;;;;5.35;1.27;;;21.40;89.70;;;;;;5077069;28;20058;-75
2022/08/03 00:43:39;;;;;;;5.47;1.33;;;21.40;90.00;;;;;;5077198;28;20115;-76
2022/08/03 00:46:05;;;;;;;3.85;1.00;;;21.30;90.10;;;;;;5076728;28;20030;-75
2022/08/03 00:48:30;;;;;;;10.98;2.03;;;21.30;90.20;;;;;;5058689;28;20082;-76
2022/08/03 00:50:57;;;;;;;5.88;1.30;;;21.30;90.40;;;;;;5058642;28;20477;-76
2022/08/03 00:53:23;;;;;;;8.70;1.60;;;21.30;90.50;;;;;;5075376;28;20048;-75
2022/08/03 00:55:49;;;;;;;5.50;1.45;;;21.20;90.70;;;;;;5076526;28;20529;-75
2022/08/03 00:58:14;;;;;;;6.20;1.50;;;21.20;90.80;;;;;;5075118;28;20063;-76
2022/08/03 01:00:40;;;;;;;8.20;1.55;;;21.20;90.90;;;;;;5091970;28;20074;-76
2022/08/03 01:03:10;;;;;;;5.07;1.65;;;21.20;91.00;;;;;;5058341;28;20028;-75
2022/08/03 01:06:06;;;;;;;7.97;1.65;;;21.10;90.90;;;;;;5075800;28;20051;-75
2022/08/03 01:08:47;;;;;;;7.32;1.17;;;21.10;90.90;;;;;;5074858;28;20024;-75
2022/08/03 01:11:37;;;;;;;6.63;1.63;;;21.00;90.90;;;;;;5076261;28;20029;-76
2022/08/03 01:14:10;;;;;;;7.60;1.27;;;21.00;91.00;;;;;;5075072;28;20024;-75
2022/08/03 01:16:57;;;;;;;6.78;1.42;;;21.00;91.00;;;;;;5075930;28;20021;-76
2022/08/03 01:19:44;;;;;;;5.13;1.25;;;21.00;91.10;;;;;;5058004;28;20032;-76
2022/08/03 01:22:30;;;;;;;6.10;1.70;;;21.00;91.20;;;;;;5075954;28;20126;-76
2022/08/03 01:24:59;;;;;;;7.18;1.42;;;20.90;91.30;;;;;;5075030;28;20071;-76
2022/08/03 01:28:02;;;;;;;5.78;1.40;;;20.90;91.40;;;;;;5076371;28;20028;-76
2022/08/03 01:30:32;;;;;;;7.85;1.40;;;20.80;91.50;;;;;;5075853;28;20465;-76
2022/08/03 01:33:11;;;;;;;7.63;1.70;;;20.80;91.50;;;;;;5074780;28;20020;-76
2022/08/03 01:36:12;;;;;;;5.07;1.52;;;20.80;91.60;;;;;;5058153;28;20028;-75
2022/08/03 01:38:43;;;;;;;6.80;1.80;;;20.70;91.80;;;;;;5044964;28;20032;-76
2022/08/03 01:41:16;;;;;;;3.78;1.02;;;20.70;91.80;;;;;;5074281;28;20460;-75
2022/08/03 01:43:47;;;;;;;8.23;1.77;;;20.70;91.90;;;;;;5075692;28;20103;-75
2022/08/03 01:46:14;;;;;;;5.53;1.70;;;20.70;92.00;;;;;;5076000;28;20056;-75
2022/08/03 01:48:42;;;;;;;7.85;1.33;;;20.60;92.10;;;;;;5075881;28;20021;-76
2022/08/03 01:51:09;;;;;;;4.50;1.42;;;20.60;92.20;;;;;;5058036;28;20082;-76
2022/08/03 01:53:37;;;;;;;8.43;1.63;;;20.60;92.30;;;;;;5041359;28;20036;-76
2022/08/03 01:56:05;;;;;;;4.00;1.48;;;20.60;92.50;;;;;;5075658;28;20472;-76
2022/08/03 01:58:32;;;;;;;9.32;1.75;;;20.50;92.60;;;;;;5074728;28;20052;-76
2022/08/03 02:01:01;;;;;;;7.15;1.30;;;20.60;92.70;;;;;;5076635;28;20027;-75
2022/08/03 02:03:28;;;;;;;8.52;1.58;;;20.50;92.80;;;;;;5057706;28;20115;-75
2022/08/03 02:05:56;;;;;;;10.38;2.15;;;20.50;92.90;;;;;;5057567;28;20048;-75
2022/08/03 02:08:24;;;;;;;5.45;1.50;;;20.40;92.90;;;;;;5075923;28;20029;-75
2022/08/03 02:10:51;;;;;;;10.48;1.58;;;20.40;93.00;;;;;;5081711;28;20024;-75
2022/08/03 02:13:19;;;;;;;5.68;1.05;;;20.40;93.10;;;;;;5061516;28;20025;-76
2022/08/03 02:15:46;;;;;;;4.63;1.15;;;20.40;93.10;;;;;;5076092;28;20110;-76
2022/08/03 02:18:13;;;;;;;5.35;1.80;;;20.40;93.10;;;;;;5058632;28;20492;-76
2022/08/03 02:20:41;;;;;;;6.55;1.42;;;20.30;93.10;;;;;;5041571;28;20029;-76
2022/08/03 02:23:08;;;;;;;10.70;2.05;;;20.30;93.20;;;;;;5074695;28;20526;-76
2022/08/03 02:25:41;;;;;;;4.65;1.88;;;20.20;93.20;;;;;;5075875;28;20086;-76
2022/08/03 02:28:10;;;;;;;5.05;1.60;;;20.20;93.30;;;;;;5074512;28;20365;-76
2022/08/03 02:30:39;;;;;;;7.72;1.63;;;20.20;93.40;;;;;;5075238;28;20024;-76
2022/08/03 02:33:15;;;;;;;5.30;1.67;;;20.10;93.50;;;;;;5073835;28;20029;-76
2022/08/03 02:35:42;;;;;;;5.25;1.75;;;20.10;93.60;;;;;;5073740;28;20016;-76
2022/08/03 02:38:10;;;;;;;6.68;2.03;;;20.00;93.70;;;;;;5074571;28;20354;-76
2022/08/03 02:40:37;;;;;;;7.75;1.55;;;20.00;93.90;;;;;;5056864;28;20504;-76
2022/08/03 02:43:09;;;;;;;6.45;1.60;;;20.00;94.00;;;;;;5057012;28;20429;-76
2022/08/03 02:45:41;;;;;;;8.25;1.83;;;20.00;94.20;;;;;;5074949;28;20024;-76
2022/08/03 02:48:10;;;;;;;9.73;2.15;;;20.00;94.30;;;;;;5058007;28;20037;-75
2022/08/03 02:50:37;;;;;;;6.90;1.80;;;20.00;94.50;;;;;;5073595;28;20028;-76
2022/08/03 02:53:03;;;;;;;12.10;2.45;;;19.90;94.60;;;;;;5055937;28;20025;-76
2022/08/03 02:55:30;;;;;;;10.65;2.10;;;19.90;94.70;;;;;;5072914;28;20069;-75
2022/08/03 02:57:57;;;;;;;5.00;2.08;;;19.90;94.80;;;;;;5057043;28;20024;-76
2022/08/03 03:00:23;;;;;;;6.70;1.98;;;19.90;95.00;;;;;;5056375;28;20107;-75
2022/08/03 03:02:50;;;;;;;7.95;2.35;;;19.90;95.10;;;;;;5074378;28;20372;-76
2022/08/03 03:05:16;;;;;;;6.90;2.35;;;19.80;95.20;;;;;;5073809;28;20056;-76
2022/08/03 03:07:42;;;;;;;5.28;2.05;;;19.90;95.30;;;;;;5074311;28;20033;-75
2022/08/03 03:10:08;;;;;;;10.10;2.20;;;19.90;95.40;;;;;;5074228;28;20029;-75
2022/08/03 03:12:36;;;;;;;6.35;1.77;;;19.80;95.50;;;;;;5056470;28;20028;-75
2022/08/03 03:15:03;;;;;;;9.55;1.92;;;19.80;95.60;;;;;;5073784;28;20025;-75
2022/08/03 03:17:30;;;;;;;5.95;1.90;;;19.80;95.70;;;;;;5074032;28;20044;-75
2022/08/03 03:19:57;;;;;;;6.03;1.95;;;19.80;95.80;;;;;;5072709;28;20020;-75
2022/08/03 03:22:23;;;;;;;6.07;2.08;;;19.80;95.90;;;;;;5056218;28;20024;-75
2022/08/03 03:24:50;;;;;;;8.48;2.13;;;19.80;96.00;;;;;;5072629;28;20024;-75
2022/08/03 03:27:17;;;;;;;5.82;2.20;;;19.70;96.10;;;;;;5056100;28;20028;-75
2022/08/03 03:29:43;;;;;;;6.40;2.42;;;19.70;96.20;;;;;;5073936;28;20085;-75
2022/08/03 03:32:09;;;;;;;6.90;2.45;;;19.70;96.30;;;;;;5039785;28;20027;-75
2022/08/03 03:34:36;;;;;;;7.10;2.55;;;19.70;96.50;;;;;;5039400;28;20039;-75
2022/08/03 03:37:01;;;;;;;7.88;2.55;;;19.70;96.60;;;;;;5072722;28;20024;-74
2022/08/03 03:39:27;;;;;;;6.53;2.40;;;19.70;96.60;;;;;;5073802;28;20087;-75
2022/08/03 03:41:53;;;;;;;6.13;2.42;;;19.70;96.70;;;;;;5055585;28;20067;-75
2022/08/03 03:44:19;;;;;;;12.27;2.80;;;19.70;96.80;;;;;;5073508;28;20036;-75
2022/08/03 03:46:45;;;;;;;6.72;2.55;;;19.60;96.80;;;;;;5055498;28;20024;-77
2022/08/03 03:49:11;;;;;;;7.47;2.38;;;19.60;96.90;;;;;;5055792;28;20142;-74
2022/08/03 03:51:37;;;;;;;8.43;2.83;;;19.60;97.00;;;;;;5055433;28;20404;-75
2022/08/03 03:54:05;;;;;;;6.75;1.75;;;19.60;97.00;;;;;;5055267;28;20029;-75
2022/08/03 03:56:32;;;;;;;7.88;2.55;;;19.60;97.10;;;;;;5055337;28;20078;-75
2022/08/03 03:58:57;;;;;;;6.75;1.88;;;19.60;97.40;;;;;;5038788;28;20037;-75
2022/08/03 04:01:23;;;;;;;4.53;1.95;;;19.50;97.20;;;;;;5072190;28;20039;-76
2022/08/03 04:03:48;;;;;;;7.57;2.33;;;19.50;97.20;;;;;;5056563;28;20111;-74
2022/08/03 04:11:30;;;;;;;10.18;3.28;;;19.40;97.30;;;;;;5077973;28;20033;-74
2022/08/03 04:14:20;;;;;;;12.77;3.13;;;19.40;97.40;;;;;;5077285;28;20019;-75
2022/08/03 04:17:07;;;;;;;8.13;2.80;;;19.40;97.50;;;;;;5051511;28;20439;-75
2022/08/03 04:19:39;;;;;;;8.43;2.72;;;19.40;97.60;;;;;;5059155;28;20540;-75
2022/08/03 04:22:09;;;;;;;11.15;3.30;;;19.40;97.60;;;;;;5077443;28;20029;-75
2022/08/03 04:24:43;;;;;;;7.32;3.25;;;19.40;97.70;;;;;;5075935;28;20021;-75
2022/08/03 04:27:12;;;;;;;7.45;3.58;;;19.40;97.80;;;;;;5077382;28;20032;-75
2022/08/03 04:29:44;;;;;;;9.02;3.50;;;19.40;97.80;;;;;;5075976;28;20473;-75
2022/08/03 04:32:10;;;;;;;8.40;3.28;;;19.40;97.90;;;;;;5059233;28;20017;-75
2022/08/03 04:34:36;;;;;;;11.00;3.95;;;19.40;97.90;;;;;;5059394;28;20035;-75
2022/08/03 04:37:08;;;;;;;10.13;3.67;;;19.40;98.00;;;;;;5077018;28;20020;-75
2022/08/03 04:39:35;;;;;;;10.82;4.05;;;19.40;98.10;;;;;;5077012;28;20032;-75
2022/08/03 04:42:05;;;;;;;11.10;4.28;;;19.40;98.10;;;;;;5076931;28;20381;-75
2022/08/03 04:44:36;;;;;;;11.05;4.07;;;19.50;98.20;;;;;;5076719;28;20103;-76
2022/08/03 04:47:02;;;;;;;12.50;4.13;;;19.50;98.20;;;;;;5076920;28;20025;-75
2022/08/03 04:49:28;;;;;;;7.65;4.10;;;19.50;98.30;;;;;;5076450;28;20029;-75
2022/08/03 04:51:54;;;;;;;10.27;4.40;;;19.50;98.30;;;;;;5058907;28;20028;-75
2022/08/03 04:54:20;;;;;;;9.75;5.00;;;19.50;98.30;;;;;;5058823;28;20479;-75
2022/08/03 04:56:46;;;;;;;9.93;4.40;;;19.50;98.30;;;;;;5075040;28;20037;-75
2022/08/03 04:59:12;;;;;;;10.65;4.63;;;19.60;98.30;;;;;;5057015;28;20119;-75
2022/08/03 05:01:41;;;;;;;12.77;4.55;;;19.60;98.30;;;;;;5058322;28;20082;-75
2022/08/03 05:04:06;;;;;;;11.75;4.80;;;19.60;98.30;;;;;;5076638;28;20043;-74
2022/08/03 05:06:32;;;;;;;12.95;4.47;;;19.60;98.30;;;;;;5057956;28;20147;-75
2022/08/03 05:08:58;;;;;;;11.13;4.07;;;19.60;98.30;;;;;;5058680;28;20032;-75
2022/08/03 05:11:23;;;;;;;8.38;4.28;;;19.60;98.30;;;;;;5058840;28;20025;-75
2022/08/03 05:13:49;;;;;;;10.55;4.43;;;19.60;98.40;;;;;;5058448;28;20039;-75
2022/08/03 05:16:15;;;;;;;10.68;4.18;;;19.60;98.40;;;;;;5057537;28;20051;-75
2022/08/03 05:18:41;;;;;;;8.13;3.80;;;19.70;98.40;;;;;;5058453;28;20132;-75
2022/08/03 05:21:08;;;;;;;9.43;4.45;;;19.70;98.40;;;;;;5075802;28;20158;-76
2022/08/03 05:23:34;;;;;;;9.20;5.00;;;19.80;98.40;;;;;;5076427;28;20028;-75
2022/08/03 05:25:59;;;;;;;10.93;4.53;;;19.80;98.70;;;;;;5041678;28;20115;-75
2022/08/03 05:28:25;;;;;;;8.48;3.75;;;19.80;98.40;;;;;;5056458;28;20507;-75
2022/08/03 05:30:51;;;;;;;9.27;4.18;;;19.80;98.40;;;;;;5069717;28;20077;-75
2022/08/03 05:33:16;;;;;;;7.82;3.85;;;19.80;98.40;;;;;;5070307;28;20150;-74
2022/08/03 05:35:42;;;;;;;12.10;4.55;;;19.90;98.40;;;;;;5037743;28;20036;-75
2022/08/03 05:38:08;;;;;;;10.20;4.03;;;19.90;98.30;;;;;;5050511;28;20392;-75
2022/08/03 05:40:34;;;;;;;14.65;3.95;;;19.90;98.30;;;;;;5082716;28;20028;-74
2022/08/03 05:43:00;;;;;;;10.95;4.07;;;19.90;98.20;;;;;;5057117;28;20041;-76
2022/08/03 05:45:25;;;;;;;11.43;4.38;;;20.00;98.20;;;;;;5051999;28;20120;-75
2022/08/03 05:47:51;;;;;;;12.60;4.63;;;20.10;98.20;;;;;;5036891;28;20087;-75
2022/08/03 05:50:18;;;;;;;7.95;3.70;;;20.10;98.20;;;;;;5014098;28;20480;-75
2022/08/03 05:52:44;;;;;;;12.38;3.80;;;20.10;98.10;;;;;;5062241;28;20032;-75
2022/08/03 05:55:11;;;;;;;10.85;4.28;;;20.20;98.10;;;;;;5055291;28;20412;-75
2022/08/03 05:57:37;;;;;;;8.45;3.35;;;20.20;98.10;;;;;;5055322;28;20426;-74
2022/08/03 06:00:08;;;;;;;10.50;3.80;;;20.30;98.00;;;;;;5070984;28;20029;-75
2022/08/03 06:02:34;;;;;;;6.72;2.83;;;20.30;98.00;;;;;;5055425;28;20126;-75
2022/08/03 06:04:59;;;;;;;8.15;3.42;;;20.40;97.90;;;;;;5070363;28;20562;-76
2022/08/03 06:07:25;;;;;;;8.07;3.72;;;20.40;97.80;;;;;;5037310;28;20029;-75
2022/08/03 06:09:51;;;;;;;13.80;3.53;;;20.40;97.70;;;;;;5071099;28;20039;-75
2022/08/03 06:12:17;;;;;;;9.27;3.78;;;20.40;97.60;;;;;;5055502;28;20036;-75
2022/08/03 06:14:42;;;;;;;6.85;2.55;;;20.50;97.60;;;;;;5070726;28;20164;-75
2022/08/03 06:17:08;;;;;;;8.38;2.58;;;20.50;97.50;;;;;;5053588;28;20021;-75
2022/08/03 06:19:34;;;;;;;11.55;3.50;;;20.60;97.40;;;;;;5055119;28;20033;-75
2022/08/03 06:21:59;;;;;;;7.80;3.22;;;20.60;97.30;;;;;;5070592;28;20051;-75
2022/08/03 06:24:25;;;;;;;11.57;3.67;;;20.60;97.30;;;;;;5053870;28;20077;-75
2022/08/03 06:26:51;;;;;;;7.95;3.53;;;20.60;97.20;;;;;;5070155;28;20180;-75
2022/08/03 06:29:16;;;;;;;9.90;3.25;;;20.60;97.10;;;;;;5036956;28;20071;-75
2022/08/03 06:31:42;;;;;;;11.07;3.28;;;20.70;97.00;;;;;;5070135;28;20029;-75
2022/08/03 06:34:07;;;;;;;12.07;2.97;;;20.70;96.90;;;;;;5054989;28;20021;-75
2022/08/03 06:36:33;;;;;;;11.02;2.45;;;20.70;96.80;;;;;;5053642;28;20469;-75
2022/08/03 06:38:59;;;;;;;13.43;3.40;;;20.70;96.70;;;;;;5070076;28;20112;-75
2022/08/03 06:41:26;;;;;;;8.75;3.10;;;20.70;96.60;;;;;;5054818;28;20428;-75
2022/08/03 06:43:52;;;;;;;13.35;4.07;;;20.80;96.50;;;;;;5036573;28;20016;-74
2022/08/03 06:46:18;;;;;;;11.43;3.55;;;20.80;96.50;;;;;;5061389;28;20112;-74
2022/08/03 06:48:43;;;;;;;15.82;3.95;;;20.90;96.40;;;;;;5058862;28;20362;-76
2022/08/03 06:51:09;;;;;;;12.07;3.30;;;20.90;96.30;;;;;;5056177;28;20036;-77
2022/08/03 06:53:35;;;;;;;9.73;3.13;;;20.90;96.20;;;;;;5056448;28;20082;-76
2022/08/03 06:56:01;;;;;;;8.82;2.63;;;21.00;96.20;;;;;;5054391;28;20390;-76
2022/08/03 06:58:26;;;;;;;8.13;3.03;;;21.00;96.10;;;;;;5074237;28;20123;-76
2022/08/03 07:00:52;;;;;;;14.32;4.05;;;21.10;96.10;;;;;;5073892;28;20127;-77
2022/08/03 07:03:18;;;;;;;9.40;3.47;;;21.00;96.00;;;;;;5039675;28;20041;-76
2022/08/03 07:05:47;;;;;;;9.45;2.72;;;21.10;95.90;;;;;;5073694;28;20076;-76
2022/08/03 07:08:13;;;;;;;12.65;3.00;;;21.10;95.80;;;;;;5074069;28;20035;-77
2022/08/03 07:10:38;;;;;;;13.32;3.22;;;21.20;95.70;;;;;;5073431;28;20037;-76
2022/08/03 07:13:04;;;;;;;10.32;2.70;;;21.20;95.40;;;;;;5073910;28;20021;-76
2022/08/03 07:15:30;;;;;;;12.85;2.35;;;21.20;95.30;;;;;;5073641;28;20059;-76
2022/08/03 07:17:56;;;;;;;8.50;1.95;;;21.30;95.50;;;;;;5073554;28;20528;-76
2022/08/03 07:20:22;;;;;;;13.05;2.53;;;21.30;95.20;;;;;;5055804;28;20162;-75
2022/08/03 07:22:47;;;;;;;9.73;2.38;;;21.40;95.10;;;;;;5061016;28;20058;-76
2022/08/03 07:25:13;;;;;;;9.65;2.17;;;21.40;95.00;;;;;;5055762;28;20449;-76
2022/08/03 07:27:43;;;;;;;12.35;2.15;;;21.50;95.00;;;;;;5039425;28;20025;-76
2022/08/03 07:30:09;;;;;;;5.82;1.50;;;21.50;94.90;;;;;;5056034;28;20032;-77
2022/08/03 07:32:35;;;;;;;8.90;1.98;;;21.60;94.90;;;;;;5039595;28;20033;-75
2022/08/03 07:35:01;;;;;;;13.70;2.50;;;21.70;94.70;;;;;;5039051;28;20488;-76
2022/08/03 07:37:27;;;;;;;13.07;1.75;;;21.70;94.60;;;;;;5073704;28;20071;-76
2022/08/03 07:39:53;;;;;;;10.05;2.47;;;21.80;94.40;;;;;;5073361;28;20092;-76
2022/08/03 07:42:19;;;;;;;12.00;2.58;;;21.80;94.20;;;;;;5039081;28;20119;-76
2022/08/03 07:44:44;;;;;;;14.18;1.58;;;21.90;94.00;;;;;;5039671;28;20032;-75
2022/08/03 07:47:10;;;;;;;13.15;2.20;;;22.00;93.80;;;;;;5039369;28;20476;-76
2022/08/03 07:49:40;;;;;;;10.95;2.58;;;22.00;93.60;;;;;;5055448;28;20036;-75
2022/08/03 07:54:49;;;;;;;9.93;2.00;;;22.10;93.50;;;;;;5058548;28;20439;-76
2022/08/03 07:57:15;;;;;;;9.63;1.88;;;22.10;93.40;;;;;;5039009;28;20017;-76
2022/08/03 07:59:41;;;;;;;11.95;2.95;;;22.10;93.40;;;;;;5055780;28;20036;-75
2022/08/03 08:02:07;;;;;;;13.90;2.53;;;22.20;93.30;;;;;;5051984;28;20032;-77
2022/08/03 08:04:32;;;;;;;13.88;2.17;;;22.30;93.20;;;;;;5053452;28;20104;-76
2022/08/03 08:06:58;;;;;;;7.47;1.75;;;22.30;93.00;;;;;;5053257;28;20048;-76
2022/08/03 08:09:24;;;;;;;9.15;1.73;;;22.40;92.80;;;;;;5052026;28;20025;-77
2022/08/03 08:11:49;;;;;;;8.38;1.98;;;22.40;92.70;;;;;;5069000;28;20032;-76
2022/08/03 08:14:15;;;;;;;15.05;1.95;;;22.50;92.60;;;;;;5053639;28;20029;-76
2022/08/03 08:16:41;;;;;;;14.07;2.25;;;22.50;92.40;;;;;;5054957;28;20021;-76
2022/08/03 08:19:07;;;;;;;8.52;2.33;;;22.60;92.20;;;;;;5051903;28;20040;-76
2022/08/03 08:21:33;;;;;;;6.90;1.45;;;22.70;92.10;;;;;;5035339;28;20032;-78
2022/08/03 08:23:59;;;;;;;9.32;1.98;;;22.70;92.00;;;;;;5053436;28;20427;-76
2022/08/03 08:26:24;;;;;;;8.13;1.63;;;22.70;91.90;;;;;;5068715;28;20029;-76
2022/08/03 08:28:51;;;;;;;11.35;1.70;;;22.80;92.10;;;;;;5068483;28;20037;-76
2022/08/03 08:31:17;;;;;;;10.55;1.65;;;22.80;91.60;;;;;;5068349;28;20025;-76
2022/08/03 08:33:43;;;;;;;8.52;2.00;;;22.90;91.40;;;;;;5064948;28;20036;-76
2022/08/03 08:36:08;;;;;;;10.32;1.85;;;22.90;91.30;;;;;;5055138;28;20029;-75
2022/08/03 08:38:34;;;;;;;17.85;2.20;;;23.00;91.30;;;;;;5054726;28;20423;-75
2022/08/03 08:41:00;;;;;;;13.85;2.22;;;23.00;91.00;;;;;;5072592;28;20036;-76
2022/08/03 08:43:27;;;;;;;13.00;1.63;;;23.00;91.00;;;;;;5060400;28;20055;-77
2022/08/03 08:45:55;;;;;;;9.60;1.77;;;23.10;90.90;;;;;;5054673;28;20384;-78
2022/08/03 08:48:23;;;;;;;14.05;3.17;;;23.20;90.80;;;;;;5071127;28;20025;-76
2022/08/03 08:50:53;;;;;;;13.23;2.08;;;23.20;90.60;;;;;;5071690;28;20033;-76
2022/08/03 08:53:20;;;;;;;10.60;2.05;;;23.30;90.40;;;;;;5076627;28;20029;-76
2022/08/03 08:55:46;;;;;;;11.77;1.92;;;23.40;90.10;;;;;;5076359;28;20477;-76
2022/08/03 08:58:15;;;;;;;17.63;1.98;;;23.40;89.90;;;;;;5075462;28;20020;-77
2022/08/03 09:00:43;;;;;;;14.43;2.10;;;23.50;89.40;;;;;;5077109;28;20040;-76
2022/08/03 09:03:10;;;;;;;12.13;2.08;;;23.60;89.00;;;;;;5058896;28;20123;-76
2022/08/03 09:05:37;;;;;;;9.48;2.00;;;23.60;88.50;;;;;;5076109;28;20055;-76
2022/08/03 09:08:04;;;;;;;12.50;2.25;;;23.70;88.10;;;;;;5076232;28;20496;-76
2022/08/03 09:10:30;;;;;;;13.13;1.85;;;23.80;87.30;;;;;;5076140;28;20034;-77
2022/08/03 09:12:55;;;;;;;11.68;2.10;;;23.80;86.50;;;;;;5041567;28;20477;-76
2022/08/03 09:15:22;;;;;;;13.23;2.03;;;23.90;85.90;;;;;;5076212;28;20032;-76
2022/08/03 09:17:50;;;;;;;13.15;1.27;;;23.90;84.90;;;;;;5058417;28;20028;-75
2022/08/03 09:20:15;;;;;;;14.35;2.08;;;24.00;84.10;;;;;;5041859;28;20051;-76
2022/08/03 09:22:53;;;;;;;14.38;2.00;;;24.10;84.20;;;;;;5058443;28;20516;-76
2022/08/03 09:25:25;;;;;;;12.27;1.77;;;24.20;83.80;;;;;;5075190;28;20042;-76
2022/08/03 09:27:50;;;;;;;19.05;2.90;;;24.30;83.20;;;;;;5076407;28;20055;-76
2022/08/03 09:30:17;;;;;;;15.95;2.50;;;24.40;82.50;;;;;;5058267;28;20476;-76
2022/08/03 09:32:45;;;;;;;9.05;1.60;;;24.50;82.00;;;;;;5074789;28;20021;-77
2022/08/03 09:35:12;;;;;;;11.65;2.17;;;24.50;81.70;;;;;;5075726;28;20031;-76
2022/08/03 09:37:38;;;;;;;11.13;2.35;;;24.60;81.30;;;;;;5075717;28;20052;-76
2022/08/03 09:40:05;;;;;;;11.52;1.60;;;24.70;80.70;;;;;;5075873;28;20025;-76
2022/08/03 09:42:33;;;;;;;14.18;2.70;;;24.80;80.30;;;;;;5074613;28;20025;-76
2022/08/03 09:44:58;;;;;;;15.55;2.75;;;24.90;80.20;;;;;;5075708;28;20063;-76
2022/08/03 09:47:38;;;;;;;10.55;1.60;;;25.00;79.70;;;;;;5041587;28;20051;-76
2022/08/03 09:50:11;;;;;;;16.23;2.45;;;25.10;79.40;;;;;;5075672;28;20037;-77
2022/08/03 09:52:39;;;;;;;14.50;2.20;;;25.20;79.20;;;;;;5057810;28;20384;-76
2022/08/03 09:55:13;;;;;;;11.32;2.00;;;25.30;78.40;;;;;;5075719;28;20165;-76
2022/08/03 09:57:39;;;;;;;13.23;2.47;;;25.40;77.60;;;;;;5075410;28;20028;-75
2022/08/03 10:00:11;;;;;;;12.55;1.67;;;25.50;78.20;;;;;;5075474;28;20031;-76
2022/08/03 10:02:37;;;;;;;15.40;1.70;;;25.60;77.60;;;;;;5074845;28;20029;-76
2022/08/03 10:05:04;;;;;;;11.60;2.00;;;25.70;76.80;;;;;;5073817;28;20058;-76
2022/08/03 10:07:45;;;;;;;9.02;1.60;;;25.80;76.80;;;;;;5074154;28;20032;-76
2022/08/03 10:10:10;;;;;;;11.15;1.80;;;25.90;76.60;;;;;;5073156;28;20028;-76
2022/08/03 10:12:37;;;;;;;14.65;2.22;;;26.00;76.00;;;;;;5074761;28;20503;-76
2022/08/03 10:15:04;;;;;;;16.73;1.67;;;26.20;75.80;;;;;;5057081;28;20017;-76
2022/08/03 10:17:30;;;;;;;13.07;1.65;;;26.30;75.60;;;;;;5056985;28;20107;-77
2022/08/03 10:19:57;;;;;;;7.30;1.55;;;26.40;74.50;;;;;;5050267;28;20187;-77
2022/08/03 10:22:26;;;;;;;15.05;1.70;;;26.50;73.90;;;;;;5040819;28;20028;-76
2022/08/03 10:24:58;;;;;;;11.38;2.03;;;26.60;73.50;;;;;;5060953;28;20031;-76
2022/08/03 10:27:25;;;;;;;10.43;1.55;;;26.70;72.60;;;;;;5052242;28;20067;-76
2022/08/03 10:29:59;;;;;;;12.15;1.77;;;26.90;71.80;;;;;;5072283;28;20030;-76
2022/08/03 10:32:32;;;;;;;8.15;1.45;;;27.00;70.60;;;;;;5072001;28;20476;-76
2022/08/03 10:35:11;;;;;;;11.43;1.80;;;27.10;69.40;;;;;;5074078;28;20550;-76
2022/08/03 10:37:46;;;;;;;13.57;2.00;;;27.30;69.10;;;;;;5072761;28;20029;-77
2022/08/03 10:40:14;;;;;;;10.52;1.77;;;27.60;69.20;;;;;;5037209;28;20091;-76
2022/08/03 10:42:43;;;;;;;9.02;1.30;;;27.90;69.00;;;;;;5036713;28;20052;-78
2022/08/03 10:45:26;;;;;;;12.32;1.92;;;28.30;67.80;;;;;;5036917;28;20025;-78
2022/08/03 10:47:53;;;;;;;;;;;28.70;66.70;;;;;;5037145;28;20392;-76
2022/08/03 10:50:22;;;;;;;11.25;1.88;;;29.10;67.00;;;;;;5036602;28;19908;-77
2022/08/03 10:52:57;;;;;;;8.73;1.83;;;29.50;66.30;;;;;;5036813;28;20082;-76
2022/08/03 10:58:36;;;;;;;8.60;1.50;;;30.40;62.90;;;;;;5054447;28;20418;-77
2022/08/03 11:01:03;;;;;;;10.00;1.55;;;31.20;62.70;;;;;;5054430;28;20393;-78
2022/08/03 11:03:29;;;;;;;9.40;1.75;;;31.80;62.80;;;;;;5054462;28;20028;-82
2022/08/03 11:06:19;;;;;;;9.00;1.30;;;32.40;61.30;;;;;;5053860;28;20455;-82
2022/08/03 11:08:47;;;;;;;12.73;1.60;;;33.00;57.40;;;;;;5069380;28;20136;-83
2022/08/03 11:11:18;;;;;;;11.15;1.65;;;33.50;55.80;;;;;;5070216;28;20056;-83
2022/08/03 11:14:06;;;;;;;10.50;1.70;;;33.90;55.10;;;;;;5055245;28;20121;-83
2022/08/03 11:16:34;;;;;;;7.35;1.90;;;34.40;53.90;;;;;;5073673;28;20020;-82
2022/08/03 11:19:02;;;;;;;12.02;1.67;;;34.80;53.20;;;;;;5072647;28;20472;-81
2022/08/03 11:21:47;;;;;;;7.80;1.85;;;34.80;52.60;;;;;;5073772;28;20496;-82
2022/08/03 11:24:35;;;;;;;11.38;1.90;;;34.80;51.60;;;;;;5055842;28;20025;-79
2022/08/03 11:27:17;;;;;;;9.60;1.55;;;34.70;51.50;;;;;;5073865;28;20464;-80
2022/08/03 11:29:55;;;;;;;10.80;1.58;;;34.70;51.00;;;;;;5073612;28;20039;-80
2022/08/03 11:32:36;;;;;;;10.30;1.60;;;34.60;50.40;;;;;;5055731;28;20035;-81
2022/08/03 11:35:11;;;;;;;7.72;1.40;;;34.50;50.30;;;;;;5073622;28;20104;-82
2022/08/03 11:37:59;;;;;;;8.15;1.48;;;34.30;49.90;;;;;;5073572;28;20025;-82
2022/08/03 11:40:44;;;;;;;9.57;1.70;;;34.40;49.10;;;;;;5073410;28;20365;-82
2022/08/03 11:43:22;;;;;;;10.10;1.25;;;34.30;48.60;;;;;;5073508;28;20047;-80
2022/08/03 11:46:04;;;;;;;8.15;1.45;;;34.30;48.50;;;;;;5055803;28;20067;-82
2022/08/03 11:48:33;;;;;;;12.43;1.67;;;34.30;48.40;;;;;;5055453;28;20443;-78
2022/08/03 11:51:06;;;;;;;7.20;1.42;;;34.30;48.50;;;;;;5073591;28;20028;-81
2022/08/03 11:53:32;;;;;;;6.38;1.20;;;34.30;48.00;;;;;;5055463;28;20020;-81
2022/08/03 11:55:59;;;;;;;8.68;1.50;;;34.40;47.80;;;;;;5073312;28;20399;-81
2022/08/03 11:58:26;;;;;;;9.77;1.40;;;34.30;47.50;;;;;;5072488;28;20024;-81
2022/08/03 12:00:52;;;;;;;9.43;1.42;;;34.40;47.40;;;;;;5055677;28;20039;-82
2022/08/03 12:03:19;;;;;;;6.28;1.50;;;34.30;47.10;;;;;;5073304;28;20028;-83
2022/08/03 12:05:52;;;;;;;11.20;1.50;;;34.40;46.80;;;;;;5073425;28;20393;-81
2022/08/03 12:08:38;;;;;;;9.20;1.70;;;34.40;46.60;;;;;;5073234;28;20090;-82
2022/08/03 12:11:06;;;;;;;9.50;1.23;;;34.40;46.30;;;;;;5073022;28;20028;-81
2022/08/03 12:13:46;;;;;;;13.68;1.80;;;34.50;46.60;;;;;;5073142;28;20091;-82
2022/08/03 12:16:23;;;;;;;10.50;1.50;;;34.60;46.30;;;;;;5073130;28;20465;-80
2022/08/03 12:19:04;;;;;;;7.18;1.00;;;34.80;46.40;;;;;;5073064;28;20025;-82
2022/08/03 12:21:30;;;;;;;8.10;1.20;;;34.90;46.10;;;;;;5072907;28;20020;-81
2022/08/03 12:24:04;;;;;;;8.73;1.20;;;35.10;46.80;;;;;;5055082;28;20108;-82
2022/08/03 12:26:45;;;;;;;6.38;1.35;;;35.20;46.10;;;;;;5056725;28;20013;-83
2022/08/03 12:29:18;;;;;;;9.65;1.55;;;35.30;45.70;;;;;;5039126;28;20055;-82
2022/08/03 12:31:44;;;;;;;10.70;1.75;;;35.50;45.60;;;;;;5057032;28;20117;-82
2022/08/03 12:34:12;;;;;;;8.10;1.40;;;35.60;45.40;;;;;;5039201;28;20113;-82
2022/08/03 12:36:52;;;;;;;7.72;0.95;;;35.70;45.20;;;;;;5057118;28;20474;-81
2022/08/03 12:39:22;;;;;;;8.00;1.08;;;35.80;44.90;;;;;;5056985;28;20071;-81
2022/08/03 12:41:52;;;;;;;7.85;1.10;;;36.00;44.70;;;;;;5057048;28;20033;-81
2022/08/03 12:44:28;;;;;;;8.55;1.27;;;36.20;44.50;;;;;;5056954;28;20040;-82
2022/08/03 12:46:57;;;;;;;8.80;1.10;;;36.30;44.40;;;;;;5056956;28;20042;-82
2022/08/03 12:49:23;;;;;;;5.78;1.33;;;36.60;43.90;;;;;;5038962;28;20118;-83
2022/08/03 12:51:48;;;;;;;8.27;0.93;;;36.70;43.70;;;;;;5038789;28;20021;-82
2022/08/03 12:54:26;;;;;;;6.85;1.13;;;36.90;43.50;;;;;;5056951;28;20032;-82
2022/08/03 12:57:05;;;;;;;3.95;0.75;;;37.00;42.90;;;;;;5039594;28;20079;-83
2022/08/03 12:59:42;;;;;;;6.63;0.70;;;37.20;42.60;;;;;;5076284;28;20029;-85
2022/08/03 13:02:16;;;;;;;6.63;0.95;;;37.20;42.20;;;;;;5077371;28;20491;-83
2022/08/03 13:04:42;;;;;;;8.57;1.30;;;37.20;42.10;;;;;;5078811;28;20029;-86